sensor_id;sensor_type;location;lat;lon;timestamp;P1;durP1;ratioP1;P2;durP2;ratioP2
6987;SDS011;3534;49.960;8.018;2023-07-30T00:01:33;2.70;;;1.63;;
6987;SDS011;3534;49.960;8.018;2023-07-30T00:04:00;1.40;;;1.30;;
6987;SDS011;3534;49.960;8.018;2023-07-30T00:06:27;1.60;;;1.50;;
6987;SDS011;3534;49.960;8.018;2023-07-30T00:08:54;1.30;;;1.20;;
6987;SDS011;3534;49.960;8.018;2023-07-30T00:11:21;3.73;;;1.70;;
6987;SDS011;3534;49.960;8.018;2023-07-30T00:13:49;1.97;;;1.23;;
6987;SDS011;3534;49.960;8.018;2023-07-30T00:16:16;2.27;;;1.37;;
6987;SDS011;3534;49.960;8.018;2023-07-30T00:18:43;1.50;;;1.40;;
6987;SDS011;3534;49.960;8.018;2023-07-30T00:21:10;1.43;;;1.33;;
6987;SDS011;3534;49.960;8.018;2023-07-30T00:23:37;1.30;;;1.20;;
6987;SDS011;3534;49.960;8.018;2023-07-30T00:26:04;2.30;;;1.30;;
6987;SDS011;3534;49.960;8.018;2023-07-30T00:28:30;1.57;;;1.30;;
6987;SDS011;3534;49.960;8.018;2023-07-30T00:30:59;1.13;;;1.03;;
6987;SDS011;3534;49.960;8.018;2023-07-30T00:33:25;1.63;;;1.00;;
6987;SDS011;3534;49.960;8.018;2023-07-30T00:35:52;1.43;;;1.20;;
6987;SDS011;3534;49.960;8.018;2023-07-30T00:38:19;5.90;;;1.30;;
6987;SDS011;3534;49.960;8.018;2023-07-30T00:40:47;1.53;;;1.43;;
6987;SDS011;3534;49.960;8.018;2023-07-30T00:43:14;1.70;;;1.30;;
6987;SDS011;3534;49.960;8.018;2023-07-30T00:45:41;2.60;;;1.60;;
6987;SDS011;3534;49.960;8.018;2023-07-30T00:48:11;2.13;;;1.10;;
6987;SDS011;3534;49.960;8.018;2023-07-30T00:50:40;5.03;;;1.27;;
6987;SDS011;3534;49.960;8.018;2023-07-30T00:53:08;4.50;;;1.03;;
6987;SDS011;3534;49.960;8.018;2023-07-30T00:55:37;1.20;;;1.00;;
6987;SDS011;3534;49.960;8.018;2023-07-30T00:58:04;1.27;;;1.17;;
6987;SDS011;3534;49.960;8.018;2023-07-30T01:00:31;1.70;;;1.20;;
6987;SDS011;3534;49.960;8.018;2023-07-30T01:02:58;2.00;;;0.83;;
6987;SDS011;3534;49.960;8.018;2023-07-30T01:05:26;1.40;;;1.30;;
6987;SDS011;3534;49.960;8.018;2023-07-30T01:07:53;1.40;;;1.30;;
6987;SDS011;3534;49.960;8.018;2023-07-30T01:10:20;1.07;;;1.00;;
6987;SDS011;3534;49.960;8.018;2023-07-30T01:12:48;1.40;;;1.00;;
6987;SDS011;3534;49.960;8.018;2023-07-30T01:15:17;1.33;;;1.17;;
6987;SDS011;3534;49.960;8.018;2023-07-30T01:17:44;3.17;;;1.00;;
6987;SDS011;3534;49.960;8.018;2023-07-30T01:20:11;1.10;;;1.00;;
6987;SDS011;3534;49.960;8.018;2023-07-30T01:22:39;1.10;;;1.00;;
6987;SDS011;3534;49.960;8.018;2023-07-30T01:25:06;1.20;;;1.00;;
6987;SDS011;3534;49.960;8.018;2023-07-30T01:27:36;1.87;;;1.03;;
6987;SDS011;3534;49.960;8.018;2023-07-30T01:30:06;1.93;;;1.20;;
6987;SDS011;3534;49.960;8.018;2023-07-30T01:32:42;2.83;;;1.30;;
6987;SDS011;3534;49.960;8.018;2023-07-30T01:35:09;1.27;;;1.17;;
6987;SDS011;3534;49.960;8.018;2023-07-30T01:37:40;2.03;;;1.17;;
6987;SDS011;3534;49.960;8.018;2023-07-30T01:40:09;1.33;;;1.23;;
6987;SDS011;3534;49.960;8.018;2023-07-30T01:42:37;1.57;;;1.07;;
6987;SDS011;3534;49.960;8.018;2023-07-30T01:45:03;1.00;;;0.80;;
6987;SDS011;3534;49.960;8.018;2023-07-30T01:47:30;1.10;;;1.00;;
6987;SDS011;3534;49.960;8.018;2023-07-30T01:49:57;1.20;;;1.10;;
6987;SDS011;3534;49.960;8.018;2023-07-30T01:52:24;1.27;;;1.10;;
6987;SDS011;3534;49.960;8.018;2023-07-30T01:54:52;4.57;;;1.00;;
6987;SDS011;3534;49.960;8.018;2023-07-30T01:57:21;1.10;;;1.00;;
6987;SDS011;3534;49.960;8.018;2023-07-30T01:59:47;1.40;;;1.10;;
6987;SDS011;3534;49.960;8.018;2023-07-30T02:02:14;1.13;;;1.03;;
6987;SDS011;3534;49.960;8.018;2023-07-30T02:04:41;1.17;;;1.10;;
6987;SDS011;3534;49.960;8.018;2023-07-30T02:07:08;1.00;;;0.90;;
6987;SDS011;3534;49.960;8.018;2023-07-30T02:09:34;2.83;;;0.97;;
6987;SDS011;3534;49.960;8.018;2023-07-30T02:12:03;1.27;;;1.10;;
6987;SDS011;3534;49.960;8.018;2023-07-30T02:14:30;1.37;;;1.27;;
6987;SDS011;3534;49.960;8.018;2023-07-30T02:16:56;0.90;;;0.90;;
6987;SDS011;3534;49.960;8.018;2023-07-30T02:19:23;3.00;;;1.30;;
6987;SDS011;3534;49.960;8.018;2023-07-30T02:21:50;1.70;;;1.20;;
6987;SDS011;3534;49.960;8.018;2023-07-30T02:24:16;1.30;;;1.20;;
6987;SDS011;3534;49.960;8.018;2023-07-30T02:26:43;1.23;;;1.00;;
6987;SDS011;3534;49.960;8.018;2023-07-30T02:29:11;1.00;;;0.90;;
6987;SDS011;3534;49.960;8.018;2023-07-30T02:31:38;1.20;;;1.10;;
6987;SDS011;3534;49.960;8.018;2023-07-30T02:34:05;1.47;;;1.23;;
6987;SDS011;3534;49.960;8.018;2023-07-30T02:36:32;2.50;;;1.20;;
6987;SDS011;3534;49.960;8.018;2023-07-30T02:38:59;3.90;;;1.10;;
6987;SDS011;3534;49.960;8.018;2023-07-30T02:41:26;7.00;;;1.10;;
6987;SDS011;3534;49.960;8.018;2023-07-30T02:43:53;1.10;;;1.00;;
6987;SDS011;3534;49.960;8.018;2023-07-30T02:46:21;1.10;;;0.87;;
6987;SDS011;3534;49.960;8.018;2023-07-30T02:48:47;1.20;;;1.10;;
6987;SDS011;3534;49.960;8.018;2023-07-30T02:51:14;1.27;;;1.17;;
6987;SDS011;3534;49.960;8.018;2023-07-30T02:53:42;1.40;;;1.30;;
6987;SDS011;3534;49.960;8.018;2023-07-30T02:56:09;1.93;;;1.23;;
6987;SDS011;3534;49.960;8.018;2023-07-30T02:58:36;1.40;;;1.00;;
6987;SDS011;3534;49.960;8.018;2023-07-30T03:01:06;1.90;;;1.20;;
6987;SDS011;3534;49.960;8.018;2023-07-30T03:03:34;1.50;;;1.13;;
6987;SDS011;3534;49.960;8.018;2023-07-30T03:06:01;1.10;;;1.00;;
6987;SDS011;3534;49.960;8.018;2023-07-30T03:08:27;2.90;;;1.03;;
6987;SDS011;3534;49.960;8.018;2023-07-30T03:10:57;1.30;;;1.10;;
6987;SDS011;3534;49.960;8.018;2023-07-30T03:13:24;1.77;;;1.20;;
6987;SDS011;3534;49.960;8.018;2023-07-30T03:15:51;2.03;;;1.20;;
6987;SDS011;3534;49.960;8.018;2023-07-30T03:18:17;3.90;;;1.37;;
6987;SDS011;3534;49.960;8.018;2023-07-30T03:20:45;1.50;;;1.10;;
6987;SDS011;3534;49.960;8.018;2023-07-30T03:23:12;2.90;;;1.10;;
6987;SDS011;3534;49.960;8.018;2023-07-30T03:25:39;1.43;;;1.33;;
6987;SDS011;3534;49.960;8.018;2023-07-30T03:28:06;2.73;;;1.00;;
6987;SDS011;3534;49.960;8.018;2023-07-30T03:30:32;7.40;;;1.50;;
6987;SDS011;3534;49.960;8.018;2023-07-30T03:32:59;2.43;;;1.30;;
6987;SDS011;3534;49.960;8.018;2023-07-30T03:35:26;3.70;;;1.30;;
6987;SDS011;3534;49.960;8.018;2023-07-30T03:37:54;1.70;;;1.30;;
6987;SDS011;3534;49.960;8.018;2023-07-30T03:40:21;1.30;;;1.20;;
6987;SDS011;3534;49.960;8.018;2023-07-30T03:42:48;2.20;;;1.40;;
6987;SDS011;3534;49.960;8.018;2023-07-30T03:45:15;2.87;;;1.10;;
6987;SDS011;3534;49.960;8.018;2023-07-30T03:47:42;1.50;;;1.10;;
6987;SDS011;3534;49.960;8.018;2023-07-30T03:50:09;1.63;;;1.43;;
6987;SDS011;3534;49.960;8.018;2023-07-30T03:52:36;1.20;;;1.10;;
6987;SDS011;3534;49.960;8.018;2023-07-30T03:55:04;1.77;;;1.37;;
6987;SDS011;3534;49.960;8.018;2023-07-30T03:57:31;1.67;;;1.07;;
6987;SDS011;3534;49.960;8.018;2023-07-30T03:59:58;3.80;;;1.67;;
6987;SDS011;3534;49.960;8.018;2023-07-30T04:02:25;5.10;;;1.70;;
6987;SDS011;3534;49.960;8.018;2023-07-30T04:04:52;1.30;;;1.20;;
6987;SDS011;3534;49.960;8.018;2023-07-30T04:07:19;2.60;;;1.30;;
6987;SDS011;3534;49.960;8.018;2023-07-30T04:09:45;1.47;;;0.90;;
6987;SDS011;3534;49.960;8.018;2023-07-30T04:12:14;1.40;;;1.30;;
6987;SDS011;3534;49.960;8.018;2023-07-30T04:14:40;1.50;;;1.40;;
6987;SDS011;3534;49.960;8.018;2023-07-30T04:17:07;1.87;;;1.33;;
6987;SDS011;3534;49.960;8.018;2023-07-30T04:19:34;2.70;;;1.33;;
6987;SDS011;3534;49.960;8.018;2023-07-30T04:22:01;1.30;;;1.20;;
6987;SDS011;3534;49.960;8.018;2023-07-30T04:24:27;1.30;;;1.20;;
6987;SDS011;3534;49.960;8.018;2023-07-30T04:26:54;1.97;;;1.30;;
6987;SDS011;3534;49.960;8.018;2023-07-30T04:29:22;1.77;;;1.23;;
6987;SDS011;3534;49.960;8.018;2023-07-30T04:31:49;2.30;;;1.30;;
6987;SDS011;3534;49.960;8.018;2023-07-30T04:34:16;2.50;;;1.50;;
6987;SDS011;3534;49.960;8.018;2023-07-30T04:36:42;3.63;;;1.63;;
6987;SDS011;3534;49.960;8.018;2023-07-30T04:39:09;2.93;;;1.83;;
6987;SDS011;3534;49.960;8.018;2023-07-30T04:41:37;1.87;;;1.50;;
6987;SDS011;3534;49.960;8.018;2023-07-30T04:44:04;1.67;;;1.40;;
6987;SDS011;3534;49.960;8.018;2023-07-30T04:46:32;2.23;;;1.60;;
6987;SDS011;3534;49.960;8.018;2023-07-30T04:49:01;1.50;;;1.20;;
6987;SDS011;3534;49.960;8.018;2023-07-30T04:51:28;3.27;;;1.40;;
6987;SDS011;3534;49.960;8.018;2023-07-30T04:53:55;1.50;;;1.40;;
6987;SDS011;3534;49.960;8.018;2023-07-30T04:56:22;2.30;;;1.33;;
6987;SDS011;3534;49.960;8.018;2023-07-30T04:58:51;1.53;;;1.43;;
6987;SDS011;3534;49.960;8.018;2023-07-30T05:01:18;5.73;;;1.83;;
6987;SDS011;3534;49.960;8.018;2023-07-30T05:03:46;1.53;;;1.43;;
6987;SDS011;3534;49.960;8.018;2023-07-30T05:06:13;1.30;;;1.20;;
6987;SDS011;3534;49.960;8.018;2023-07-30T05:08:39;3.13;;;1.83;;
6987;SDS011;3534;49.960;8.018;2023-07-30T05:11:06;1.37;;;1.27;;
6987;SDS011;3534;49.960;8.018;2023-07-30T05:13:33;2.57;;;1.40;;
6987;SDS011;3534;49.960;8.018;2023-07-30T05:16:00;2.50;;;1.60;;
6987;SDS011;3534;49.960;8.018;2023-07-30T05:18:27;1.53;;;1.43;;
6987;SDS011;3534;49.960;8.018;2023-07-30T05:20:55;2.27;;;1.60;;
6987;SDS011;3534;49.960;8.018;2023-07-30T05:23:22;1.83;;;1.57;;
6987;SDS011;3534;49.960;8.018;2023-07-30T05:25:49;1.80;;;1.60;;
6987;SDS011;3534;49.960;8.018;2023-07-30T05:28:16;1.73;;;1.57;;
6987;SDS011;3534;49.960;8.018;2023-07-30T05:30:43;4.23;;;1.40;;
6987;SDS011;3534;49.960;8.018;2023-07-30T05:33:10;2.00;;;1.50;;
6987;SDS011;3534;49.960;8.018;2023-07-30T05:35:36;3.43;;;1.50;;
6987;SDS011;3534;49.960;8.018;2023-07-30T05:38:05;2.07;;;1.50;;
6987;SDS011;3534;49.960;8.018;2023-07-30T05:40:31;1.80;;;1.67;;
6987;SDS011;3534;49.960;8.018;2023-07-30T05:42:58;2.80;;;1.43;;
6987;SDS011;3534;49.960;8.018;2023-07-30T05:45:25;1.60;;;1.50;;
6987;SDS011;3534;49.960;8.018;2023-07-30T05:47:52;3.00;;;1.53;;
6987;SDS011;3534;49.960;8.018;2023-07-30T05:50:19;2.40;;;1.43;;
6987;SDS011;3534;49.960;8.018;2023-07-30T05:52:46;2.10;;;1.60;;
6987;SDS011;3534;49.960;8.018;2023-07-30T05:55:14;1.70;;;1.60;;
6987;SDS011;3534;49.960;8.018;2023-07-30T05:57:41;2.37;;;1.70;;
6987;SDS011;3534;49.960;8.018;2023-07-30T06:00:08;4.10;;;1.80;;
6987;SDS011;3534;49.960;8.018;2023-07-30T06:02:35;4.37;;;1.90;;
6987;SDS011;3534;49.960;8.018;2023-07-30T06:05:02;1.60;;;1.50;;
6987;SDS011;3534;49.960;8.018;2023-07-30T06:07:29;2.03;;;1.27;;
6987;SDS011;3534;49.960;8.018;2023-07-30T06:09:56;3.73;;;1.83;;
6987;SDS011;3534;49.960;8.018;2023-07-30T06:12:24;2.90;;;1.80;;
6987;SDS011;3534;49.960;8.018;2023-07-30T06:14:51;1.70;;;1.60;;
6987;SDS011;3534;49.960;8.018;2023-07-30T06:17:18;3.40;;;1.63;;
6987;SDS011;3534;49.960;8.018;2023-07-30T06:19:45;1.70;;;1.60;;
6987;SDS011;3534;49.960;8.018;2023-07-30T06:22:12;2.20;;;1.80;;
6987;SDS011;3534;49.960;8.018;2023-07-30T06:24:38;1.83;;;1.60;;
6987;SDS011;3534;49.960;8.018;2023-07-30T06:27:05;3.10;;;1.50;;
6987;SDS011;3534;49.960;8.018;2023-07-30T06:29:36;2.23;;;1.43;;
6987;SDS011;3534;49.960;8.018;2023-07-30T06:32:03;3.73;;;2.10;;
6987;SDS011;3534;49.960;8.018;2023-07-30T06:34:30;4.83;;;1.90;;
6987;SDS011;3534;49.960;8.018;2023-07-30T06:36:57;1.53;;;1.30;;
6987;SDS011;3534;49.960;8.018;2023-07-30T06:39:23;3.33;;;2.00;;
6987;SDS011;3534;49.960;8.018;2023-07-30T06:41:50;2.53;;;1.90;;
6987;SDS011;3534;49.960;8.018;2023-07-30T06:44:17;3.50;;;1.90;;
6987;SDS011;3534;49.960;8.018;2023-07-30T06:46:45;2.30;;;2.10;;
6987;SDS011;3534;49.960;8.018;2023-07-30T06:49:12;4.20;;;1.90;;
6987;SDS011;3534;49.960;8.018;2023-07-30T06:51:38;2.70;;;2.20;;
6987;SDS011;3534;49.960;8.018;2023-07-30T06:54:05;2.40;;;2.20;;
6987;SDS011;3534;49.960;8.018;2023-07-30T06:56:32;1.80;;;1.60;;
6987;SDS011;3534;49.960;8.018;2023-07-30T06:58:59;3.70;;;1.90;;
6987;SDS011;3534;49.960;8.018;2023-07-30T07:01:25;2.03;;;1.83;;
6987;SDS011;3534;49.960;8.018;2023-07-30T07:03:54;2.20;;;1.87;;
6987;SDS011;3534;49.960;8.018;2023-07-30T07:06:20;1.70;;;1.60;;
6987;SDS011;3534;49.960;8.018;2023-07-30T07:08:47;2.93;;;1.40;;
6987;SDS011;3534;49.960;8.018;2023-07-30T07:11:14;1.80;;;1.50;;
6987;SDS011;3534;49.960;8.018;2023-07-30T07:13:41;2.93;;;1.70;;
6987;SDS011;3534;49.960;8.018;2023-07-30T07:16:08;2.00;;;1.70;;
6987;SDS011;3534;49.960;8.018;2023-07-30T07:18:34;3.63;;;1.93;;
6987;SDS011;3534;49.960;8.018;2023-07-30T07:21:03;3.03;;;2.13;;
6987;SDS011;3534;49.960;8.018;2023-07-30T07:23:29;2.37;;;2.17;;
6987;SDS011;3534;49.960;8.018;2023-07-30T07:25:57;2.70;;;2.30;;
6987;SDS011;3534;49.960;8.018;2023-07-30T07:28:23;2.60;;;2.00;;
6987;SDS011;3534;49.960;8.018;2023-07-30T07:30:50;4.00;;;2.30;;
6987;SDS011;3534;49.960;8.018;2023-07-30T07:33:17;2.70;;;2.47;;
6987;SDS011;3534;49.960;8.018;2023-07-30T07:35:44;5.33;;;3.13;;
6987;SDS011;3534;49.960;8.018;2023-07-30T07:38:12;3.20;;;2.70;;
6987;SDS011;3534;49.960;8.018;2023-07-30T07:40:39;2.80;;;2.60;;
6987;SDS011;3534;49.960;8.018;2023-07-30T07:43:06;3.20;;;2.90;;
6987;SDS011;3534;49.960;8.018;2023-07-30T07:45:33;3.73;;;2.93;;
6987;SDS011;3534;49.960;8.018;2023-07-30T07:48:00;5.00;;;3.10;;
6987;SDS011;3534;49.960;8.018;2023-07-30T07:50:27;4.17;;;2.93;;
6987;SDS011;3534;49.960;8.018;2023-07-30T07:52:54;3.43;;;2.77;;
6987;SDS011;3534;49.960;8.018;2023-07-30T07:55:22;3.80;;;3.33;;
6987;SDS011;3534;49.960;8.018;2023-07-30T07:57:49;4.03;;;2.87;;
6987;SDS011;3534;49.960;8.018;2023-07-30T08:00:17;5.17;;;2.70;;
6987;SDS011;3534;49.960;8.018;2023-07-30T08:02:43;3.70;;;3.37;;
6987;SDS011;3534;49.960;8.018;2023-07-30T08:05:10;3.90;;;3.10;;
6987;SDS011;3534;49.960;8.018;2023-07-30T08:07:37;3.73;;;3.43;;
6987;SDS011;3534;49.960;8.018;2023-07-30T08:10:04;4.10;;;2.97;;
6987;SDS011;3534;49.960;8.018;2023-07-30T08:12:33;3.97;;;2.93;;
6987;SDS011;3534;49.960;8.018;2023-07-30T08:15:00;3.73;;;2.63;;
6987;SDS011;3534;49.960;8.018;2023-07-30T08:17:27;3.97;;;2.80;;
6987;SDS011;3534;49.960;8.018;2023-07-30T08:19:54;4.37;;;3.20;;
6987;SDS011;3534;49.960;8.018;2023-07-30T08:22:21;3.30;;;2.90;;
6987;SDS011;3534;49.960;8.018;2023-07-30T08:24:47;3.17;;;2.87;;
6987;SDS011;3534;49.960;8.018;2023-07-30T08:27:14;3.33;;;2.93;;
6987;SDS011;3534;49.960;8.018;2023-07-30T08:29:42;3.00;;;2.67;;
6987;SDS011;3534;49.960;8.018;2023-07-30T08:32:10;3.70;;;2.97;;
6987;SDS011;3534;49.960;8.018;2023-07-30T08:34:36;3.20;;;2.87;;
6987;SDS011;3534;49.960;8.018;2023-07-30T08:37:04;7.43;;;2.60;;
6987;SDS011;3534;49.960;8.018;2023-07-30T08:39:31;7.40;;;3.03;;
6987;SDS011;3534;49.960;8.018;2023-07-30T08:41:57;4.90;;;1.80;;
6987;SDS011;3534;49.960;8.018;2023-07-30T08:44:24;2.30;;;1.67;;
6987;SDS011;3534;49.960;8.018;2023-07-30T08:46:53;2.30;;;2.03;;
6987;SDS011;3534;49.960;8.018;2023-07-30T08:49:20;1.07;;;0.97;;
6987;SDS011;3534;49.960;8.018;2023-07-30T08:51:47;1.50;;;0.73;;
6987;SDS011;3534;49.960;8.018;2023-07-30T08:54:18;5.53;;;1.10;;
6987;SDS011;3534;49.960;8.018;2023-07-30T08:56:47;0.80;;;0.60;;
6987;SDS011;3534;49.960;8.018;2023-07-30T08:59:15;1.23;;;0.70;;
6987;SDS011;3534;49.960;8.018;2023-07-30T09:01:43;0.80;;;0.60;;
6987;SDS011;3534;49.960;8.018;2023-07-30T09:04:13;1.07;;;0.80;;
6987;SDS011;3534;49.960;8.018;2023-07-30T09:06:41;0.80;;;0.70;;
6987;SDS011;3534;49.960;8.018;2023-07-30T09:09:08;1.33;;;0.50;;
6987;SDS011;3534;49.960;8.018;2023-07-30T09:11:36;1.93;;;0.50;;
6987;SDS011;3534;49.960;8.018;2023-07-30T09:14:05;0.70;;;0.57;;
6987;SDS011;3534;49.960;8.018;2023-07-30T09:16:32;1.13;;;0.60;;
6987;SDS011;3534;49.960;8.018;2023-07-30T09:18:59;0.80;;;0.60;;
6987;SDS011;3534;49.960;8.018;2023-07-30T09:21:31;0.77;;;0.60;;
6987;SDS011;3534;49.960;8.018;2023-07-30T09:24:00;2.83;;;0.70;;
6987;SDS011;3534;49.960;8.018;2023-07-30T09:26:31;1.43;;;0.60;;
6987;SDS011;3534;49.960;8.018;2023-07-30T09:29:07;0.93;;;0.47;;
6987;SDS011;3534;49.960;8.018;2023-07-30T09:31:42;0.80;;;0.60;;
6987;SDS011;3534;49.960;8.018;2023-07-30T09:34:14;1.20;;;0.83;;
6987;SDS011;3534;49.960;8.018;2023-07-30T09:36:44;3.00;;;0.80;;
6987;SDS011;3534;49.960;8.018;2023-07-30T09:39:14;1.63;;;1.03;;
6987;SDS011;3534;49.960;8.018;2023-07-30T09:41:42;1.23;;;0.70;;
6987;SDS011;3534;49.960;8.018;2023-07-30T09:44:08;1.77;;;0.70;;
6987;SDS011;3534;49.960;8.018;2023-07-30T09:46:41;1.30;;;0.70;;
6987;SDS011;3534;49.960;8.018;2023-07-30T09:49:09;2.10;;;0.70;;
6987;SDS011;3534;49.960;8.018;2023-07-30T09:51:36;1.63;;;0.90;;
6987;SDS011;3534;49.960;8.018;2023-07-30T09:54:04;4.23;;;1.03;;
6987;SDS011;3534;49.960;8.018;2023-07-30T09:56:33;1.80;;;0.63;;
6987;SDS011;3534;49.960;8.018;2023-07-30T09:59:00;2.00;;;0.83;;
6987;SDS011;3534;49.960;8.018;2023-07-30T10:01:26;1.30;;;0.87;;
6987;SDS011;3534;49.960;8.018;2023-07-30T10:03:56;2.20;;;0.80;;
6987;SDS011;3534;49.960;8.018;2023-07-30T10:06:23;1.53;;;0.93;;
6987;SDS011;3534;49.960;8.018;2023-07-30T10:08:53;0.90;;;0.70;;
6987;SDS011;3534;49.960;8.018;2023-07-30T10:11:23;5.20;;;0.90;;
6987;SDS011;3534;49.960;8.018;2023-07-30T10:13:50;3.40;;;1.00;;
6987;SDS011;3534;49.960;8.018;2023-07-30T10:16:21;2.03;;;1.10;;
6987;SDS011;3534;49.960;8.018;2023-07-30T10:18:53;1.30;;;0.90;;
6987;SDS011;3534;49.960;8.018;2023-07-30T10:21:22;3.80;;;1.30;;
6987;SDS011;3534;49.960;8.018;2023-07-30T10:23:57;3.30;;;1.10;;
6987;SDS011;3534;49.960;8.018;2023-07-30T10:26:30;2.90;;;1.00;;
6987;SDS011;3534;49.960;8.018;2023-07-30T10:29:14;4.20;;;1.60;;
6987;SDS011;3534;49.960;8.018;2023-07-30T10:31:42;3.93;;;1.40;;
6987;SDS011;3534;49.960;8.018;2023-07-30T10:34:13;2.07;;;0.87;;
6987;SDS011;3534;49.960;8.018;2023-07-30T10:36:41;4.30;;;0.97;;
6987;SDS011;3534;49.960;8.018;2023-07-30T10:39:13;4.57;;;1.30;;
6987;SDS011;3534;49.960;8.018;2023-07-30T10:41:44;3.40;;;0.90;;
6987;SDS011;3534;49.960;8.018;2023-07-30T10:44:17;5.90;;;1.20;;
6987;SDS011;3534;49.960;8.018;2023-07-30T10:46:45;10.50;;;1.00;;
6987;SDS011;3534;49.960;8.018;2023-07-30T10:49:12;6.50;;;1.10;;
6987;SDS011;3534;49.960;8.018;2023-07-30T10:51:39;2.70;;;1.30;;
6987;SDS011;3534;49.960;8.018;2023-07-30T10:54:07;5.57;;;1.17;;
6987;SDS011;3534;49.960;8.018;2023-07-30T10:56:34;3.10;;;1.20;;
6987;SDS011;3534;49.960;8.018;2023-07-30T10:59:04;2.13;;;1.10;;
6987;SDS011;3534;49.960;8.018;2023-07-30T11:01:35;3.43;;;1.63;;
6987;SDS011;3534;49.960;8.018;2023-07-30T11:04:05;2.33;;;1.20;;
6987;SDS011;3534;49.960;8.018;2023-07-30T11:06:33;4.23;;;1.13;;
6987;SDS011;3534;49.960;8.018;2023-07-30T11:09:00;8.20;;;1.30;;
6987;SDS011;3534;49.960;8.018;2023-07-30T11:11:26;8.80;;;1.43;;
6987;SDS011;3534;49.960;8.018;2023-07-30T11:13:53;5.80;;;1.27;;
6987;SDS011;3534;49.960;8.018;2023-07-30T11:16:22;2.67;;;1.23;;
6987;SDS011;3534;49.960;8.018;2023-07-30T11:18:48;3.23;;;1.33;;
6987;SDS011;3534;49.960;8.018;2023-07-30T11:21:16;3.83;;;1.40;;
6987;SDS011;3534;49.960;8.018;2023-07-30T11:23:44;3.90;;;1.53;;
6987;SDS011;3534;49.960;8.018;2023-07-30T11:26:16;3.33;;;1.07;;
6987;SDS011;3534;49.960;8.018;2023-07-30T11:28:44;3.27;;;1.10;;
6987;SDS011;3534;49.960;8.018;2023-07-30T11:31:11;4.93;;;1.20;;
6987;SDS011;3534;49.960;8.018;2023-07-30T11:33:41;4.20;;;1.10;;
6987;SDS011;3534;49.960;8.018;2023-07-30T11:36:09;4.60;;;1.30;;
6987;SDS011;3534;49.960;8.018;2023-07-30T11:38:38;2.80;;;1.27;;
6987;SDS011;3534;49.960;8.018;2023-07-30T11:41:05;7.80;;;1.17;;
6987;SDS011;3534;49.960;8.018;2023-07-30T11:43:35;4.23;;;1.57;;
6987;SDS011;3534;49.960;8.018;2023-07-30T11:46:05;3.30;;;1.80;;
6987;SDS011;3534;49.960;8.018;2023-07-30T11:48:33;2.97;;;1.17;;
6987;SDS011;3534;49.960;8.018;2023-07-30T11:51:01;2.33;;;1.20;;
6987;SDS011;3534;49.960;8.018;2023-07-30T11:53:44;3.63;;;1.20;;
6987;SDS011;3534;49.960;8.018;2023-07-30T11:56:14;4.60;;;1.33;;
6987;SDS011;3534;49.960;8.018;2023-07-30T11:58:46;3.10;;;1.20;;
6987;SDS011;3534;49.960;8.018;2023-07-30T12:01:14;3.83;;;1.20;;
6987;SDS011;3534;49.960;8.018;2023-07-30T12:03:41;2.60;;;1.20;;
6987;SDS011;3534;49.960;8.018;2023-07-30T12:06:10;4.43;;;1.20;;
6987;SDS011;3534;49.960;8.018;2023-07-30T12:08:37;6.00;;;1.67;;
6987;SDS011;3534;49.960;8.018;2023-07-30T12:11:04;12.53;;;1.70;;
6987;SDS011;3534;49.960;8.018;2023-07-30T12:13:32;4.67;;;1.37;;
6987;SDS011;3534;49.960;8.018;2023-07-30T12:15:59;3.50;;;0.97;;
6987;SDS011;3534;49.960;8.018;2023-07-30T12:18:26;3.17;;;1.30;;
6987;SDS011;3534;49.960;8.018;2023-07-30T12:20:54;2.17;;;1.00;;
6987;SDS011;3534;49.960;8.018;2023-07-30T12:23:22;5.27;;;1.30;;
6987;SDS011;3534;49.960;8.018;2023-07-30T12:25:49;2.90;;;1.00;;
6987;SDS011;3534;49.960;8.018;2023-07-30T12:28:17;4.53;;;1.37;;
6987;SDS011;3534;49.960;8.018;2023-07-30T12:30:43;7.27;;;1.30;;
6987;SDS011;3534;49.960;8.018;2023-07-30T12:33:10;2.80;;;1.47;;
6987;SDS011;3534;49.960;8.018;2023-07-30T12:35:37;4.60;;;1.40;;
6987;SDS011;3534;49.960;8.018;2023-07-30T12:38:03;3.63;;;1.30;;
6987;SDS011;3534;49.960;8.018;2023-07-30T12:40:32;3.63;;;1.17;;
6987;SDS011;3534;49.960;8.018;2023-07-30T12:43:00;5.57;;;1.50;;
6987;SDS011;3534;49.960;8.018;2023-07-30T12:45:27;4.63;;;1.00;;
6987;SDS011;3534;49.960;8.018;2023-07-30T12:47:54;5.23;;;1.97;;
6987;SDS011;3534;49.960;8.018;2023-07-30T12:50:21;12.53;;;2.20;;
6987;SDS011;3534;49.960;8.018;2023-07-30T12:52:48;2.60;;;1.23;;
6987;SDS011;3534;49.960;8.018;2023-07-30T12:55:15;2.27;;;0.97;;
6987;SDS011;3534;49.960;8.018;2023-07-30T12:57:43;4.50;;;1.13;;
6987;SDS011;3534;49.960;8.018;2023-07-30T13:00:10;5.70;;;1.30;;
6987;SDS011;3534;49.960;8.018;2023-07-30T13:02:38;4.07;;;1.03;;
6987;SDS011;3534;49.960;8.018;2023-07-30T13:05:04;4.73;;;1.27;;
6987;SDS011;3534;49.960;8.018;2023-07-30T13:07:32;8.90;;;1.57;;
6987;SDS011;3534;49.960;8.018;2023-07-30T13:10:02;2.30;;;0.90;;
6987;SDS011;3534;49.960;8.018;2023-07-30T13:12:30;2.53;;;1.27;;
6987;SDS011;3534;49.960;8.018;2023-07-30T13:14:58;4.10;;;1.80;;
6987;SDS011;3534;49.960;8.018;2023-07-30T13:17:25;4.00;;;1.13;;
6987;SDS011;3534;49.960;8.018;2023-07-30T13:19:52;9.93;;;1.40;;
6987;SDS011;3534;49.960;8.018;2023-07-30T13:22:19;8.43;;;1.60;;
6987;SDS011;3534;49.960;8.018;2023-07-30T13:24:45;4.60;;;1.20;;
6987;SDS011;3534;49.960;8.018;2023-07-30T13:27:12;6.07;;;1.00;;
6987;SDS011;3534;49.960;8.018;2023-07-30T13:29:39;2.43;;;1.10;;
6987;SDS011;3534;49.960;8.018;2023-07-30T13:32:07;3.00;;;1.10;;
6987;SDS011;3534;49.960;8.018;2023-07-30T13:34:34;5.17;;;1.73;;
6987;SDS011;3534;49.960;8.018;2023-07-30T13:37:01;4.70;;;1.47;;
6987;SDS011;3534;49.960;8.018;2023-07-30T13:39:28;6.10;;;1.30;;
6987;SDS011;3534;49.960;8.018;2023-07-30T13:41:54;3.33;;;1.63;;
6987;SDS011;3534;49.960;8.018;2023-07-30T13:44:21;2.73;;;1.17;;
6987;SDS011;3534;49.960;8.018;2023-07-30T13:46:48;2.70;;;0.90;;
6987;SDS011;3534;49.960;8.018;2023-07-30T13:49:16;2.93;;;1.20;;
6987;SDS011;3534;49.960;8.018;2023-07-30T13:51:43;8.63;;;1.30;;
6987;SDS011;3534;49.960;8.018;2023-07-30T13:54:10;1.77;;;0.87;;
6987;SDS011;3534;49.960;8.018;2023-07-30T13:56:37;11.83;;;1.30;;
6987;SDS011;3534;49.960;8.018;2023-07-30T13:59:03;3.73;;;0.90;;
6987;SDS011;3534;49.960;8.018;2023-07-30T14:01:30;2.43;;;1.23;;
6987;SDS011;3534;49.960;8.018;2023-07-30T14:03:57;3.47;;;1.60;;
6987;SDS011;3534;49.960;8.018;2023-07-30T14:06:25;2.87;;;1.27;;
6987;SDS011;3534;49.960;8.018;2023-07-30T14:08:52;3.33;;;1.43;;
6987;SDS011;3534;49.960;8.018;2023-07-30T14:11:19;7.90;;;1.57;;
6987;SDS011;3534;49.960;8.018;2023-07-30T14:13:46;6.27;;;1.03;;
6987;SDS011;3534;49.960;8.018;2023-07-30T14:16:12;5.07;;;1.07;;
6987;SDS011;3534;49.960;8.018;2023-07-30T14:18:39;1.73;;;1.33;;
6987;SDS011;3534;49.960;8.018;2023-07-30T14:21:06;3.00;;;1.40;;
6987;SDS011;3534;49.960;8.018;2023-07-30T14:23:34;6.13;;;1.47;;
6987;SDS011;3534;49.960;8.018;2023-07-30T14:26:01;3.30;;;1.47;;
6987;SDS011;3534;49.960;8.018;2023-07-30T14:28:28;2.00;;;1.33;;
6987;SDS011;3534;49.960;8.018;2023-07-30T14:30:54;3.50;;;1.30;;
6987;SDS011;3534;49.960;8.018;2023-07-30T14:33:21;2.30;;;1.13;;
6987;SDS011;3534;49.960;8.018;2023-07-30T14:35:48;2.13;;;0.97;;
6987;SDS011;3534;49.960;8.018;2023-07-30T14:38:14;3.17;;;1.10;;
6987;SDS011;3534;49.960;8.018;2023-07-30T14:40:43;5.03;;;1.27;;
6987;SDS011;3534;49.960;8.018;2023-07-30T14:43:10;6.90;;;1.27;;
6987;SDS011;3534;49.960;8.018;2023-07-30T14:45:36;4.30;;;1.50;;
6987;SDS011;3534;49.960;8.018;2023-07-30T14:48:03;3.53;;;1.60;;
6987;SDS011;3534;49.960;8.018;2023-07-30T14:50:30;2.53;;;1.10;;
6987;SDS011;3534;49.960;8.018;2023-07-30T14:52:57;8.73;;;1.23;;
6987;SDS011;3534;49.960;8.018;2023-07-30T14:55:24;4.77;;;1.60;;
6987;SDS011;3534;49.960;8.018;2023-07-30T14:57:52;4.93;;;1.50;;
6987;SDS011;3534;49.960;8.018;2023-07-30T15:00:19;2.80;;;1.17;;
6987;SDS011;3534;49.960;8.018;2023-07-30T15:02:45;1.00;;;0.90;;
6987;SDS011;3534;49.960;8.018;2023-07-30T15:05:12;4.30;;;1.30;;
6987;SDS011;3534;49.960;8.018;2023-07-30T15:07:39;6.53;;;1.50;;
6987;SDS011;3534;49.960;8.018;2023-07-30T15:10:06;4.43;;;1.50;;
6987;SDS011;3534;49.960;8.018;2023-07-30T15:12:34;2.63;;;1.13;;
6987;SDS011;3534;49.960;8.018;2023-07-30T15:15:03;4.37;;;1.53;;
6987;SDS011;3534;49.960;8.018;2023-07-30T15:17:31;2.80;;;1.17;;